Accueil
METAR-TAF:

METAR-TAF

Aéroports :

Aéroport de Burgos

Burgos, Espagne

latitude: 42-22N, longitude: 003-38W, altitude: 894 m

Observation

Le bulletin a été fait il y a 24 minutes, à 15:30 UTC
Vent 10 kt de ouest/sud-ouest, variant entre sud/sud-ouest et ouest
Température 24°C
Humidité 47%
Pression 1024 hPa
Visibilité 10 km ou plus
Quelques nuages à une hauteur de 3500 ft

METAR: LEBG 191530Z 24010KT 200V280 9999 FEW035 24/12 Q1024

Heure: 17:54 (15:54 UTC)

Prévision

Le bulletin a été fait il y a 1 heure et 54 minutes, à 14:00 UTC
Prévision valable du 19 à 15 UTC au 20 à 15 UTC
Vent 10 kt de sud-ouest
Visibilité 10 km ou plus
pas de nuages en-dessous de 1500 mètres et pas de cumulonimbus.
Probabilité 40% :
Temporairement
du 20 à 10 UTC au 20 à 15 UTC
Vent 18 kt de sud-ouest avec des rafales jusqu'à 32 kt

TAF: LEBG 191400Z 1915/2015 22010KT CAVOK TX25/1915Z TN08/2006Z PROB40 TEMPO 2010/2015 22018G32KT

Observations et prévisions météorologiques de plus de 4000 aéroports (messages METAR et TAF).

Les stations disponibles sont représentées par des disques jaunes et rouges sur la carte.

Passer la souris dessus pour voir le nom de la station.

Cliquer dessus pour voir les observations et prévisions météorologiques.

Pour changer de carte: cliquez sur les boutons verts avec une croix noire pour zoomer, sur le bouton vert avec un tiret pour effectuer un zoom arrière, ou sur les flèches vertes pour les cartes adjacentes.


METAR-TAF: